Time;durP1;ratioP1;P1;durP2;ratioP2;P2;SDS_P1;SDS_P2;PMS_P1;PMS_P2;Temp;Humidity;BMP_temperature;BMP_pressure;BME280_temperature;BME280_humidity;BME280_pressure;Samples;Min_cycle;Max_cycle;Signal;HPM_P1;HPM_P2
2021/06/05 00:00:50;;;;;;;7.82;2.67;;;;;;;20.90;53.74;99030.28;4976863;28;20030;-63
2021/06/05 00:03:16;;;;;;;8.25;2.53;;;;;;;20.90;53.78;99022.34;4964869;28;20038;-60
2021/06/05 00:05:44;;;;;;;7.18;2.63;;;;;;;20.77;54.28;99027.59;4980765;28;20034;-63
2021/06/05 00:08:11;;;;;;;5.95;2.47;;;;;;;20.66;54.42;99002.59;4995415;28;20099;-62
2021/06/05 00:10:40;;;;;;;7.97;3.00;;;;;;;20.84;54.48;99025.78;4978426;28;20026;-61
2021/06/05 00:13:07;;;;;;;7.82;2.60;;;;;;;20.80;54.92;99021.09;4980342;28;20069;-62
2021/06/05 00:15:38;;;;;;;5.97;2.33;;;;;;;20.79;54.60;99030.88;4979109;28;20038;-63
2021/06/05 00:18:03;;;;;;;7.85;2.65;;;;;;;20.79;53.90;99030.88;4977516;28;20033;-61
2021/06/05 00:20:30;;;;;;;6.53;2.88;;;;;;;20.70;54.31;99032.06;4960125;28;20027;-62
2021/06/05 00:22:59;;;;;;;8.38;2.90;;;;;;;20.57;54.19;99029.34;4960571;28;20026;-61
2021/06/05 00:25:26;;;;;;;11.02;3.20;;;;;;;20.31;54.34;98986.81;4975783;28;20026;-63
2021/06/05 00:27:51;;;;;;;7.10;2.85;;;;;;;20.67;54.62;99020.06;5011191;28;20030;-63
2021/06/05 00:30:18;;;;;;;6.85;2.67;;;;;;;20.61;54.86;99025.31;4998568;28;20042;-63
2021/06/05 00:32:43;;;;;;;10.00;2.90;;;;;;;20.40;54.73;98990.09;4978220;28;20088;-63
2021/06/05 00:35:09;;;;;;;6.90;3.08;;;;;;;20.51;55.78;99021.19;4962805;28;20023;-62
2021/06/05 00:37:36;;;;;;;8.38;3.13;;;;;;;20.58;55.25;99023.06;4998226;28;20125;-62
2021/06/05 00:40:02;;;;;;;13.13;2.80;;;;;;;20.34;55.24;98982.97;4975056;28;20128;-62
2021/06/05 00:42:27;;;;;;;7.72;2.97;;;;;;;20.64;54.87;99015.16;4997691;28;20749;-62
2021/06/05 00:44:53;;;;;;;6.25;2.72;;;;;;;20.59;54.68;99014.94;4988865;28;20030;-62
2021/06/05 00:47:18;;;;;;;8.45;2.58;;;;;;;20.39;54.37;98988.47;4981456;28;20038;-62
2021/06/05 00:49:44;;;;;;;8.98;2.63;;;;;;;20.31;55.13;98994.72;4965384;28;20057;-63
2021/06/05 00:52:09;;;;;;;5.63;2.45;;;;;;;20.54;55.20;99025.28;4981756;28;20121;-61
2021/06/05 00:54:35;;;;;;;5.32;2.55;;;;;;;20.53;54.94;99045.63;4964971;28;20091;-62
2021/06/05 00:57:04;;;;;;;4.80;2.22;;;;;;;20.54;54.52;99043.78;4960874;28;20497;-62
2021/06/05 00:59:29;;;;;;;6.03;2.47;;;;;;;20.34;55.02;99027.88;4982739;28;20038;-62
2021/06/05 01:01:55;;;;;;;5.15;2.28;;;;;;;20.18;55.44;99029.00;4964672;28;20925;-62
2021/06/05 01:04:21;;;;;;;5.95;2.47;;;;;;;20.17;55.91;99046.69;4965763;28;20025;-63
2021/06/05 01:07:05;;;;;;;9.48;2.90;;;;;;;20.18;56.11;99047.50;4961934;28;20037;-62
2021/06/05 01:09:36;;;;;;;5.45;2.55;;;;;;;20.23;57.19;99054.84;4980743;28;20042;-62
2021/06/05 01:12:06;;;;;;;7.95;2.80;;;;;;;20.23;57.54;99049.56;4977678;28;20034;-63
2021/06/05 01:14:49;;;;;;;6.45;2.63;;;;;;;20.15;58.03;99035.50;4965656;28;20100;-62
2021/06/05 01:17:21;;;;;;;7.40;2.20;;;;;;;20.13;57.92;99021.69;4976466;28;20034;-63
2021/06/05 01:19:49;;;;;;;6.50;2.17;;;;;;;20.11;57.90;99018.41;4980743;28;20535;-63
2021/06/05 01:22:28;;;;;;;6.88;2.42;;;;;;;20.06;58.45;99007.66;4983434;28;20034;-63
2021/06/05 01:25:10;;;;;;;6.85;2.47;;;;;;;20.10;60.70;99013.38;4974421;28;20064;-61
2021/06/05 01:27:39;;;;;;;7.65;2.63;;;;;;;20.06;61.54;98999.75;4961975;28;20048;-61
2021/06/05 01:30:32;;;;;;;5.75;2.47;;;;;;;20.07;61.84;98992.63;4978763;28;20034;-62
2021/06/05 01:32:58;;;;;;;6.07;2.42;;;;;;;20.24;60.01;98990.44;4981211;28;20041;-62
2021/06/05 01:35:25;;;;;;;6.35;2.50;;;;;;;20.22;60.17;98981.91;4998516;28;20465;-62
2021/06/05 01:37:51;;;;;;;5.53;2.38;;;;;;;20.17;60.48;98975.41;4961313;28;20706;-62
2021/06/05 01:40:17;;;;;;;6.30;2.85;;;;;;;20.04;61.70;98985.94;4977719;28;20035;-62
2021/06/05 01:42:44;;;;;;;6.25;2.58;;;;;;;20.00;59.45;98992.59;4981545;28;20405;-62
2021/06/05 01:45:15;;;;;;;5.55;2.88;;;;;;;20.01;57.98;98993.44;4979317;28;20030;-62
2021/06/05 01:47:40;;;;;;;7.90;3.13;;;;;;;20.09;57.68;98999.31;4985264;28;20109;-62
2021/06/05 01:50:08;;;;;;;5.30;2.90;;;;;;;20.00;57.29;98989.94;4966797;28;20038;-61
2021/06/05 01:52:35;;;;;;;5.82;2.97;;;;;;;20.02;57.60;98990.56;4986207;28;20041;-61
2021/06/05 01:55:07;;;;;;;7.22;2.90;;;;;;;19.82;59.24;98979.09;4984230;28;20034;-60
2021/06/05 01:57:35;;;;;;;5.35;3.13;;;;;;;19.95;61.36;98998.47;4982215;28;20053;-61
2021/06/05 02:00:00;;;;;;;6.15;3.03;;;;;;;19.84;61.40;99004.31;4983703;28;20805;-62
2021/06/05 02:02:26;;;;;;;7.30;3.47;;;;;;;19.80;62.46;99004.88;4965956;28;20041;-60
2021/06/05 02:04:52;;;;;;;7.65;3.63;;;;;;;19.82;62.43;98997.56;4985382;28;20030;-62
2021/06/05 02:07:18;;;;;;;6.45;3.60;;;;;;;19.90;60.51;99002.72;4967241;28;20072;-62
2021/06/05 02:09:43;;;;;;;6.35;3.80;;;;;;;19.85;60.41;98991.91;4982975;28;20607;-62
2021/06/05 02:12:20;;;;;;;7.60;3.80;;;;;;;19.87;60.58;98989.91;5016813;28;20047;-62
2021/06/05 02:14:54;;;;;;;6.05;3.72;;;;;;;19.87;60.89;98992.53;4984026;28;20022;-61
2021/06/05 02:17:21;;;;;;;6.88;3.53;;;;;;;19.89;60.49;98987.88;4981382;28;20057;-62
2021/06/05 02:19:54;;;;;;;6.57;3.75;;;;;;;19.91;60.09;98985.84;4996426;28;20039;-62
2021/06/05 02:22:22;;;;;;;5.95;3.80;;;;;;;19.84;60.78;98979.72;4983726;28;20085;-62
2021/06/05 02:24:50;;;;;;;7.70;3.30;;;;;;;19.73;61.46;98976.66;4982396;28;20026;-62
2021/06/05 02:27:23;;;;;;;7.00;3.80;;;;;;;19.59;63.18;98973.06;4965638;28;20373;-62
2021/06/05 02:29:49;;;;;;;8.10;3.83;;;;;;;19.54;64.18;98979.94;4965837;28;20042;-62
2021/06/05 02:32:19;;;;;;;9.15;3.75;;;;;;;19.23;63.91;98936.34;4980193;28;20109;-60
2021/06/05 02:34:45;;;;;;;8.82;3.83;;;;;;;19.56;63.65;98975.28;4967892;28;20030;-61
2021/06/05 02:37:13;;;;;;;5.45;3.47;;;;;;;19.60;63.06;98968.59;4961476;28;20030;-60
2021/06/05 02:39:40;;;;;;;7.18;3.75;;;;;;;19.55;63.06;98963.13;4983979;28;20065;-61
2021/06/05 02:42:11;;;;;;;7.57;4.18;;;;;;;19.63;62.90;98955.03;4974908;28;20028;-61
2021/06/05 02:44:41;;;;;;;10.20;4.07;;;;;;;19.72;63.30;98959.16;4978953;28;20485;-63
2021/06/05 02:47:08;;;;;;;6.60;3.78;;;;;;;19.53;63.82;98933.47;4981609;28;20108;-62
2021/06/05 02:49:35;;;;;;;6.70;3.72;;;;;;;19.69;63.99;98964.00;4966160;28;20038;-62
2021/06/05 02:52:09;;;;;;;7.28;4.25;;;;;;;19.66;64.11;98964.38;4977771;28;20027;-62
2021/06/05 02:54:36;;;;;;;8.80;3.83;;;;;;;19.57;64.50;98954.00;4980652;28;20509;-62
2021/06/05 02:57:04;;;;;;;9.10;3.97;;;;;;;19.61;64.22;98972.88;4967162;28;20449;-62
2021/06/05 02:59:30;;;;;;;8.50;4.78;;;;;;;19.62;62.79;98963.16;4979841;28;20046;-62
2021/06/05 03:01:55;;;;;;;7.57;3.80;;;;;;;19.38;63.90;98918.63;4965733;28;20053;-62
2021/06/05 03:04:21;;;;;;;7.28;3.78;;;;;;;19.62;61.51;98955.22;5012538;28;20119;-61
2021/06/05 03:06:47;;;;;;;6.78;3.47;;;;;;;19.64;60.52;98943.50;4967006;28;20044;-62
2021/06/05 03:09:15;;;;;;;6.22;3.78;;;;;;;19.70;61.62;98947.97;4981653;28;20104;-61
2021/06/05 03:11:41;;;;;;;9.10;4.00;;;;;;;19.72;62.54;98945.97;4989707;28;20056;-62
2021/06/05 03:14:07;;;;;;;7.95;3.72;;;;;;;19.65;63.48;98945.09;4978998;28;20066;-62
2021/06/05 03:16:32;;;;;;;6.55;3.75;;;;;;;19.57;64.97;98946.09;4995264;28;20127;-63
2021/06/05 03:18:58;;;;;;;8.20;4.10;;;;;;;19.30;66.75;98942.47;4981230;28;20070;-62
2021/06/05 03:21:24;;;;;;;8.20;3.83;;;;;;;19.31;67.36;98944.13;4979328;28;20038;-62
2021/06/05 03:23:50;;;;;;;6.20;3.90;;;;;;;19.21;67.91;98951.53;4977434;28;20030;-62
2021/06/05 03:26:16;;;;;;;5.90;3.63;;;;;;;19.13;65.58;98947.22;4978099;28;20029;-62
2021/06/05 03:28:42;;;;;;;6.28;3.92;;;;;;;19.00;65.14;98942.69;4978402;28;20137;-62
2021/06/05 03:31:08;;;;;;;7.55;3.63;;;;;;;18.99;64.44;98945.50;4977290;28;20096;-62
2021/06/05 03:33:34;;;;;;;7.50;3.92;;;;;;;18.90;64.79;98946.66;4983106;28;20065;-62
2021/06/05 03:35:59;;;;;;;6.70;4.00;;;;;;;18.89;65.20;98942.38;4965641;28;20499;-61
2021/06/05 03:38:26;;;;;;;8.20;3.92;;;;;;;18.92;64.70;98952.53;4981299;28;20026;-62
2021/06/05 03:40:53;;;;;;;6.80;3.78;;;;;;;18.71;65.81;98912.03;4980528;28;20120;-62
2021/06/05 03:43:19;;;;;;;7.72;4.05;;;;;;;18.78;66.60;98912.06;4977706;28;20567;-61
2021/06/05 03:45:44;;;;;;;6.05;3.95;;;;;;;18.98;66.43;98941.22;4980844;28;20018;-62
2021/06/05 03:48:10;;;;;;;10.43;9.50;;;;;;;18.93;67.39;98938.34;4970502;28;20041;-62
2021/06/05 03:50:41;;;;;;;27.67;26.02;;;;;;;18.93;67.51;98948.88;4967913;28;20325;-62
2021/06/05 03:53:06;;;;;;;109.00;103.35;;;;;;;18.68;68.17;98907.13;5004529;28;20104;-62
2021/06/05 03:55:32;;;;;;;77.07;73.22;;;;;;;18.77;67.56;98939.41;4981755;28;20026;-61
2021/06/05 03:57:59;;;;;;;480.45;441.52;;;;;;;18.83;68.42;98925.50;4978219;28;20054;-61
2021/06/05 04:00:30;;;;;;;1999.90;999.90;;;;;;;18.83;68.41;98928.13;4965857;28;20544;-62
2021/06/05 04:02:55;;;;;;;1999.90;999.90;;;;;;;18.88;68.67;98928.38;4976894;28;20022;-62
2021/06/05 04:05:21;;;;;;;1999.90;999.90;;;;;;;18.86;69.23;98925.13;4977128;28;20492;-62
2021/06/05 04:07:46;;;;;;;1999.90;999.90;;;;;;;18.86;68.67;98922.50;4962775;28;20030;-62
2021/06/05 04:10:13;;;;;;;1999.90;999.90;;;;;;;18.85;68.10;98923.50;4966599;28;20038;-62
2021/06/05 04:12:38;;;;;;;1999.90;999.90;;;;;;;18.76;67.99;98903.53;4978360;28;20033;-62
2021/06/05 04:15:07;;;;;;;1999.90;999.90;;;;;;;18.70;68.00;98894.56;4977784;28;20026;-62
2021/06/05 04:17:32;;;;;;;1999.90;999.90;;;;;;;18.98;68.03;98920.97;4975274;28;20034;-62
2021/06/05 04:19:57;;;;;;;1999.90;999.90;;;;;;;18.67;67.89;98881.78;5006160;28;20104;-62
2021/06/05 04:22:23;;;;;;;1999.90;999.90;;;;;;;18.94;67.41;98924.19;4965506;28;20034;-60
2021/06/05 04:24:48;;;;;;;1999.90;999.90;;;;;;;19.10;66.67;98921.25;4962535;28;20037;-62
2021/06/05 04:27:13;;;;;;;1999.90;999.90;;;;;;;19.09;66.28;98926.72;4974619;28;20038;-61
2021/06/05 04:29:39;;;;;;;1999.90;999.90;;;;;;;19.13;66.97;98927.94;4977693;28;20030;-62
2021/06/05 04:32:05;;;;;;;1999.90;999.90;;;;;;;19.13;66.92;98925.31;4976144;28;20035;-62
2021/06/05 04:34:31;;;;;;;1999.90;999.90;;;;;;;19.15;67.37;98928.59;4975494;28;20108;-61
2021/06/05 04:36:56;;;;;;;1999.90;999.90;;;;;;;19.11;67.18;98933.44;4977031;28;20446;-62
2021/06/05 04:39:22;;;;;;;1999.90;999.90;;;;;;;19.09;67.07;98905.63;4997145;28;20076;-62
2021/06/05 04:41:48;;;;;;;1999.90;999.90;;;;;;;19.35;67.09;98928.72;4954092;28;20783;-61
2021/06/05 04:44:13;;;;;;;1999.90;999.90;;;;;;;19.29;66.96;98925.00;4971929;28;20560;-62
2021/06/05 04:46:39;;;;;;;1999.90;999.90;;;;;;;19.09;67.45;98916.16;4952987;28;20093;-61
2021/06/05 04:49:07;;;;;;;1999.90;999.90;;;;;;;19.14;67.91;98932.22;4977129;28;20062;-61
2021/06/05 04:51:32;;;;;;;1999.90;999.90;;;;;;;19.01;67.91;98928.47;4961950;28;20037;-60
2021/06/05 04:53:58;;;;;;;1999.90;999.90;;;;;;;19.05;68.54;98930.75;4962765;28;20035;-61
2021/06/05 04:56:29;;;;;;;1999.90;999.90;;;;;;;19.09;68.53;98929.34;4960755;28;20026;-62
2021/06/05 04:58:55;;;;;;;1999.90;999.90;;;;;;;19.05;69.23;98922.84;4959597;28;20035;-62
2021/06/05 05:01:20;;;;;;;1999.90;999.90;;;;;;;19.15;69.20;98920.69;4957462;28;20473;-61
2021/06/05 05:03:46;;;;;;;1999.90;999.90;;;;;;;19.27;68.30;98921.75;4971088;28;20497;-61
2021/06/05 05:06:11;;;;;;;1573.15;781.83;;;;;;;19.14;69.19;98925.13;4977937;28;20433;-62
2021/06/05 05:08:37;;;;;;;448.70;217.98;;;;;;;19.20;68.96;98913.00;4985238;28;20145;-62
2021/06/05 05:11:04;;;;;;;536.63;333.33;;;;;;;19.34;69.10;98929.72;4977039;28;20849;-62
2021/06/05 05:13:32;;;;;;;1999.90;999.90;;;;;;;19.26;68.72;98935.13;4961243;28;20062;-62
2021/06/05 05:15:58;;;;;;;1575.50;783.65;;;;;;;19.08;69.00;98911.91;4953423;28;20041;-62
2021/06/05 05:18:24;;;;;;;622.30;366.92;;;;;;;19.21;69.52;98939.16;4960035;28;20031;-62
2021/06/05 05:20:50;;;;;;;1999.90;999.90;;;;;;;19.22;68.32;98924.19;4966113;28;20044;-61
2021/06/05 05:23:17;;;;;;;1999.90;999.90;;;;;;;19.12;68.71;98929.78;4977372;28;20050;-61
2021/06/05 05:25:43;;;;;;;1999.90;999.90;;;;;;;19.06;68.24;98932.38;4967657;28;20209;-62
2021/06/05 05:28:11;;;;;;;1999.90;999.90;;;;;;;19.12;68.59;98942.16;4963834;28;20030;-62
2021/06/05 05:30:41;;;;;;;1610.35;799.53;;;;;;;19.18;68.73;98933.47;4962882;28;20042;-62
2021/06/05 05:33:09;;;;;;;577.55;371.83;;;;;;;19.12;69.40;98937.69;4972371;28;20026;-62
2021/06/05 05:35:35;;;;;;;611.13;539.92;;;;;;;19.17;69.16;98932.66;4980177;28;20034;-62
2021/06/05 05:38:03;;;;;;;464.50;417.98;;;;;;;18.87;69.80;98902.22;4976130;28;20525;-62
2021/06/05 05:40:28;;;;;;;524.97;475.75;;;;;;;19.13;69.47;98941.97;4964242;28;20030;-62
2021/06/05 05:42:54;;;;;;;382.83;345.42;;;;;;;19.06;69.26;98919.22;4965181;28;20032;-62
2021/06/05 05:45:21;;;;;;;726.20;653.60;;;;;;;19.20;68.31;98944.63;4952767;28;20038;-62
2021/06/05 05:47:46;;;;;;;514.72;465.73;;;;;;;19.16;69.00;98949.47;4976220;28;20026;-61
2021/06/05 05:50:14;;;;;;;579.53;525.58;;;;;;;19.23;68.70;98946.09;4957521;28;20284;-63
2021/06/05 05:52:40;;;;;;;680.10;609.33;;;;;;;19.28;68.09;98947.13;4974142;28;20037;-62
2021/06/05 05:55:07;;;;;;;789.88;662.08;;;;;;;19.39;67.54;98946.59;4980720;28;20038;-63
2021/06/05 05:57:32;;;;;;;748.45;509.75;;;;;;;19.06;67.70;98896.31;4962676;28;20031;-62
2021/06/05 05:59:58;;;;;;;735.67;478.17;;;;;;;19.32;66.90;98935.19;4971076;28;20495;-60
2021/06/05 06:02:24;;;;;;;877.13;509.90;;;;;;;19.50;66.80;98944.44;4979811;28;20450;-62
2021/06/05 06:04:49;;;;;;;735.63;381.30;;;;;;;19.47;66.86;98934.25;4966688;28;20718;-62
2021/06/05 06:07:15;;;;;;;784.17;426.95;;;;;;;19.65;66.46;98947.75;4981961;28;20026;-62
2021/06/05 06:09:40;;;;;;;1999.90;999.90;;;;;;;19.63;65.82;98941.84;4976454;28;20034;-62
2021/06/05 06:12:06;;;;;;;1999.90;999.90;;;;;;;19.79;66.09;98956.59;4976951;28;20089;-62
2021/06/05 06:14:31;;;;;;;633.92;493.58;;;;;;;19.90;67.37;98952.56;4978466;28;20034;-62
2021/06/05 06:16:57;;;;;;;735.45;550.20;;;;;;;19.89;67.31;98957.00;4980558;28;20430;-62
2021/06/05 06:19:22;;;;;;;600.58;537.63;;;;;;;19.90;67.94;98955.22;4966782;28;20030;-62
2021/06/05 06:21:48;;;;;;;525.22;473.17;;;;;;;19.75;68.24;98929.78;4971335;28;20150;-62
2021/06/05 06:24:15;;;;;;;469.83;422.60;;;;;;;19.76;68.69;98949.06;4978168;28;20057;-62
2021/06/05 06:26:41;;;;;;;689.65;621.30;;;;;;;19.80;68.40;98950.28;4964298;28;20035;-62
2021/06/05 06:29:12;;;;;;;443.77;400.60;;;;;;;20.03;68.04;98959.72;4966155;28;20034;-62
2021/06/05 06:31:37;;;;;;;569.97;513.72;;;;;;;20.12;67.47;98951.44;4966391;28;20033;-63
2021/06/05 06:34:03;;;;;;;985.03;682.80;;;;;;;20.11;66.86;98949.78;4982820;28;20042;-63
2021/06/05 06:36:28;;;;;;;791.80;641.20;;;;;;;20.17;66.91;98941.09;4971391;28;20057;-62
2021/06/05 06:38:54;;;;;;;653.95;294.33;;;;;;;20.28;66.20;98944.16;4981566;28;20125;-62
2021/06/05 06:41:24;;;;;;;589.13;279.10;;;;;;;20.35;66.49;98944.97;4982647;28;20438;-62
2021/06/05 06:43:50;;;;;;;783.33;417.35;;;;;;;20.38;66.83;98946.44;4979163;28;20104;-63
2021/06/05 06:46:20;;;;;;;929.72;533.30;;;;;;;20.54;66.49;98959.25;5015891;28;20022;-63
2021/06/05 06:48:48;;;;;;;1999.90;999.90;;;;;;;20.62;65.32;98945.88;4967440;28;20034;-62
2021/06/05 06:51:13;;;;;;;1999.90;999.90;;;;;;;20.35;65.21;98923.84;4962159;28;20117;-61
2021/06/05 06:53:39;;;;;;;1999.90;999.90;;;;;;;20.51;65.59;98952.53;4952991;28;20031;-63
2021/06/05 06:56:06;;;;;;;1999.90;999.90;;;;;;;20.51;65.77;98964.94;4993912;28;20504;-63
2021/06/05 06:58:32;;;;;;;1999.90;999.90;;;;;;;20.25;65.41;98929.53;4979295;28;20465;-61
2021/06/05 07:00:57;;;;;;;1999.90;999.90;;;;;;;20.44;66.35;98966.75;4982040;28;20022;-62
2021/06/05 07:03:23;;;;;;;1999.90;999.90;;;;;;;20.64;66.29;98969.44;4975355;28;20034;-63
2021/06/05 07:05:48;;;;;;;657.72;305.73;;;;;;;20.65;66.53;98966.63;4978727;28;20116;-63
2021/06/05 07:08:23;;;;;;;605.10;261.73;;;;;;;20.81;65.56;98957.50;4966029;28;20038;-63
2021/06/05 07:10:51;;;;;;;1999.90;999.90;;;;;;;20.89;64.64;98967.03;4982955;28;20040;-62
2021/06/05 07:13:18;;;;;;;1999.90;999.90;;;;;;;20.84;65.10;98958.91;4980534;28;20049;-63
2021/06/05 07:15:43;;;;;;;1999.90;999.90;;;;;;;20.72;63.62;98958.72;4982185;28;20030;-62
2021/06/05 07:18:12;;;;;;;1999.90;999.90;;;;;;;20.64;65.01;98962.31;4963312;28;20034;-63
2021/06/05 07:20:39;;;;;;;1999.90;999.90;;;;;;;20.57;64.01;98958.84;4973084;28;20192;-61
2021/06/05 07:23:06;;;;;;;1999.90;999.90;;;;;;;20.61;63.63;98954.00;4978139;28;20114;-65
2021/06/05 07:25:31;;;;;;;1999.90;999.90;;;;;;;20.83;62.66;98955.47;4990536;28;20046;-67
2021/06/05 07:27:58;;;;;;;1999.90;999.90;;;;;;;20.90;62.26;98950.16;4974637;28;20490;-63
2021/06/05 07:30:25;;;;;;;1999.90;999.90;;;;;;;21.01;62.33;98946.91;4960124;28;20035;-65
2021/06/05 07:32:51;;;;;;;1999.90;999.90;;;;;;;20.95;61.86;98934.50;4971313;28;20040;-65
2021/06/05 07:35:16;;;;;;;1999.90;999.90;;;;;;;20.97;62.02;98940.41;4979330;28;20044;-65
2021/06/05 07:37:42;;;;;;;1999.90;999.90;;;;;;;20.94;62.00;98948.75;4963735;28;20676;-66
2021/06/05 07:40:10;;;;;;;1999.90;999.90;;;;;;;21.11;61.13;98952.59;4965787;28;20173;-65
2021/06/05 07:42:36;;;;;;;1999.90;999.90;;;;;;;21.35;61.02;98958.25;4964074;28;20054;-65
2021/06/05 07:45:05;;;;;;;1999.90;999.90;;;;;;;21.39;60.84;98954.19;4978612;28;20034;-65
2021/06/05 07:47:30;;;;;;;1999.90;999.90;;;;;;;21.55;60.69;98950.31;4964735;28;20113;-63
2021/06/05 07:49:56;;;;;;;854.50;794.47;;;;;;;21.49;59.44;98922.06;4971253;28;20108;-66
2021/06/05 07:52:24;;;;;;;451.60;429.48;;;;;;;21.42;60.01;98945.03;4959860;28;20366;-64
2021/06/05 07:54:52;;;;;;;475.92;451.30;;;;;;;21.23;60.50;98921.06;4977757;28;20516;-65
2021/06/05 07:57:19;;;;;;;568.70;536.33;;;;;;;21.30;61.27;98945.66;4966973;28;20034;-66
2021/06/05 07:59:44;;;;;;;99.95;94.95;;;;;;;21.67;57.71;98905.50;4964145;28;20043;-66
2021/06/05 08:02:10;;;;;;;17.48;16.17;;;;;;;21.95;57.75;98939.59;4976787;28;20035;-65
2021/06/05 08:04:36;;;;;;;13.13;12.02;;;;;;;21.58;59.28;98947.25;4993537;28;20372;-64
2021/06/05 08:07:02;;;;;;;14.90;13.68;;;;;;;21.38;59.83;98944.63;4980648;28;20053;-65
2021/06/05 08:09:27;;;;;;;29.90;28.02;;;;;;;21.20;60.75;98925.94;4981613;28;20112;-67
2021/06/05 08:11:52;;;;;;;12.98;12.02;;;;;;;21.10;60.51;98924.53;4958266;28;20824;-67
2021/06/05 08:14:18;;;;;;;76.50;72.40;;;;;;;20.97;60.89;98906.03;4979391;28;20065;-65
2021/06/05 08:16:43;;;;;;;86.60;82.53;;;;;;;21.03;60.97;98920.28;4975236;28;20438;-65
2021/06/05 08:19:11;;;;;;;243.77;231.77;;;;;;;21.13;61.10;98921.47;4987174;28;20018;-67
2021/06/05 08:21:39;;;;;;;214.23;204.10;;;;;;;21.35;60.45;98913.28;4964596;28;20034;-66
2021/06/05 08:24:05;;;;;;;454.50;426.73;;;;;;;21.51;60.86;98912.06;4975060;28;20030;-67
2021/06/05 08:26:31;;;;;;;121.68;116.00;;;;;;;21.43;59.94;98906.97;4955463;28;20069;-65
2021/06/05 08:28:56;;;;;;;223.07;212.48;;;;;;;21.50;60.24;98905.16;4945367;28;20030;-66
2021/06/05 08:31:22;;;;;;;17.63;16.42;;;;;;;22.11;57.37;98905.72;4978761;28;20022;-66
2021/06/05 08:33:48;;;;;;;7.47;4.15;;;;;;;22.37;54.92;98894.97;4958498;28;20037;-67
2021/06/05 08:36:16;;;;;;;7.72;4.28;;;;;;;22.68;53.35;98908.44;4960637;28;20034;-67
2021/06/05 08:38:42;;;;;;;9.77;4.47;;;;;;;22.55;52.83;98890.78;4960555;28;20026;-66
2021/06/05 08:41:22;;;;;;;6.20;4.15;;;;;;;22.69;53.11;98916.16;4962620;28;20027;-66
2021/06/05 08:44:16;;;;;;;6.00;3.65;;;;;;;22.57;50.28;98909.94;4969856;28;20293;-64
2021/06/05 08:46:46;;;;;;;6.97;4.03;;;;;;;22.52;51.69;98893.88;4974831;28;20446;-67
2021/06/05 08:49:25;;;;;;;5.95;3.60;;;;;;;22.53;50.53;98898.94;4978334;28;20050;-64
2021/06/05 08:51:58;;;;;;;6.78;4.28;;;;;;;22.47;56.04;98905.13;4961798;28;20038;-65
2021/06/05 08:54:42;;;;;;;10.75;5.30;;;;;;;22.22;58.33;98894.44;4975508;28;20084;-66
2021/06/05 08:57:19;;;;;;;8.20;4.88;;;;;;;22.04;58.85;98905.75;4989067;28;20036;-66
2021/06/05 08:59:46;;;;;;;9.23;5.50;;;;;;;21.54;59.23;98889.66;4945909;28;20038;-63
2021/06/05 09:02:12;;;;;;;9.07;5.68;;;;;;;21.34;59.46;98884.41;4962154;28;20027;-62
2021/06/05 09:04:38;;;;;;;8.15;5.10;;;;;;;21.17;59.20;98862.91;4962265;28;20022;-62
2021/06/05 09:07:08;;;;;;;7.75;4.95;;;;;;;21.17;60.24;98868.19;4973440;28;20049;-62
2021/06/05 09:09:36;;;;;;;7.82;4.70;;;;;;;21.20;58.46;98850.06;4962324;28;20027;-62
2021/06/05 09:12:03;;;;;;;10.25;5.00;;;;;;;22.04;56.74;98872.13;4975133;28;20044;-62
2021/06/05 09:14:29;;;;;;;21.02;5.25;;;;;;;22.60;56.84;98886.47;4975089;28;20118;-62
2021/06/05 09:16:55;;;;;;;9.60;4.88;;;;;;;22.26;56.50;98872.63;4966979;28;20053;-62
2021/06/05 09:19:37;;;;;;;6.25;4.75;;;;;;;22.32;56.12;98896.66;4974342;28;20102;-62
2021/06/05 09:22:17;;;;;;;9.10;4.95;;;;;;;22.37;56.63;98900.28;4977123;28;20034;-63
2021/06/05 09:24:50;;;;;;;;;;;;;;;22.70;54.92;98893.91;4972693;28;20027;-63
2021/06/05 09:27:18;;;;;;;21.77;5.53;;;;;;;23.00;53.05;98878.16;4991533;28;19914;-64
2021/06/05 09:29:54;;;;;;;13.15;4.90;;;;;;;23.14;53.38;98891.31;4978593;28;20041;-66
2021/06/05 09:32:32;;;;;;;11.52;4.88;;;;;;;23.25;54.52;98892.44;4946828;28;20110;-68
2021/06/05 09:35:15;;;;;;;15.25;4.63;;;;;;;23.14;53.71;98897.41;4972537;28;20445;-67
2021/06/05 09:37:52;;;;;;;8.82;4.13;;;;;;;23.15;52.51;98898.25;4950643;28;20029;-67
2021/06/05 09:40:25;;;;;;;6.25;4.15;;;;;;;23.26;52.71;98888.75;4992300;28;20504;-66
2021/06/05 09:42:55;;;;;;;8.35;5.28;;;;;;;22.62;56.45;98880.94;4974204;28;20026;-67
2021/06/05 09:45:30;;;;;;;8.10;6.05;;;;;;;22.36;57.33;98906.63;4963574;28;20041;-66
2021/06/05 09:48:35;;;;;;;25.95;21.65;;;;;;;22.39;56.93;98903.53;4956276;28;20076;-67
2021/06/05 09:51:04;;;;;;;26.10;20.20;;;;;;;22.04;57.00;98903.09;4958079;28;20029;-66
2021/06/05 09:53:32;;;;;;;13.50;10.18;;;;;;;21.71;57.29;98853.78;4956450;28;20657;-67
2021/06/05 09:56:11;;;;;;;10.05;6.80;;;;;;;21.65;58.19;98850.16;4979556;28;20062;-64
2021/06/05 09:58:44;;;;;;;8.95;7.05;;;;;;;21.89;57.68;98876.91;4969296;28;20429;-65
2021/06/05 10:01:25;;;;;;;8.27;5.50;;;;;;;22.06;57.01;98875.38;4959356;28;20031;-66
2021/06/05 10:03:54;;;;;;;8.57;4.68;;;;;;;22.59;57.07;98876.06;4975444;28;20030;-66
2021/06/05 10:06:40;;;;;;;8.57;5.03;;;;;;;22.84;57.01;98879.53;4964075;28;20037;-66
2021/06/05 10:09:24;;;;;;;7.57;5.13;;;;;;;22.99;55.86;98865.91;4981786;28;20145;-66
2021/06/05 10:11:58;;;;;;;8.00;4.68;;;;;;;22.83;52.76;98874.44;4992502;28;20458;-64
2021/06/05 10:14:36;;;;;;;7.22;5.25;;;;;;;22.69;53.41;98873.75;4978578;28;20026;-66
2021/06/05 10:17:08;;;;;;;8.50;5.93;;;;;;;22.95;53.23;98872.69;4984290;28;20034;-64
2021/06/05 10:19:41;;;;;;;6.28;4.30;;;;;;;23.03;52.10;98880.34;4973737;28;20037;-65
2021/06/05 10:22:07;;;;;;;6.47;4.72;;;;;;;23.14;53.30;98878.06;4962636;28;20085;-67
2021/06/05 10:24:37;;;;;;;7.07;3.50;;;;;;;23.37;47.03;98877.41;4979935;28;20062;-64
2021/06/05 10:27:15;;;;;;;9.55;3.38;;;;;;;23.56;46.97;98872.88;4981172;28;20026;-63
2021/06/05 10:29:45;;;;;;;8.52;3.63;;;;;;;23.90;45.44;98875.97;4996001;28;20023;-62
2021/06/05 10:32:33;;;;;;;7.70;3.20;;;;;;;24.29;42.53;98879.09;4994698;28;20113;-63
2021/06/05 10:35:06;;;;;;;8.40;3.60;;;;;;;24.35;42.47;98878.16;4980478;28;20061;-67
2021/06/05 10:37:36;;;;;;;9.85;3.20;;;;;;;24.31;41.07;98838.00;4975207;28;20022;-67
2021/06/05 10:40:05;;;;;;;7.10;3.10;;;;;;;24.62;40.39;98880.44;4958859;28;20022;-64
2021/06/05 10:42:41;;;;;;;4.78;2.90;;;;;;;24.66;40.10;98852.34;4962477;28;20030;-64
2021/06/05 10:45:11;;;;;;;6.50;3.05;;;;;;;24.43;40.66;98864.56;4974086;28;20030;-64
2021/06/05 10:47:45;;;;;;;8.88;3.40;;;;;;;24.38;41.30;98845.84;4978830;28;20045;-66
2021/06/05 10:50:39;;;;;;;7.32;3.20;;;;;;;24.43;42.64;98859.25;4946864;28;20042;-64
2021/06/05 10:53:13;;;;;;;8.50;3.70;;;;;;;24.47;43.15;98846.31;4957447;28;20018;-65
2021/06/05 10:55:47;;;;;;;6.68;3.70;;;;;;;24.33;43.22;98870.44;4969925;28;20061;-65
2021/06/05 10:58:13;;;;;;;7.75;3.50;;;;;;;24.16;42.03;98840.25;4988835;28;20045;-64
2021/06/05 11:00:41;;;;;;;7.70;3.50;;;;;;;24.50;42.13;98873.25;4979593;28;20035;-66
2021/06/05 11:03:09;;;;;;;11.68;3.60;;;;;;;24.65;41.65;98861.41;4976478;28;20060;-63
2021/06/05 11:05:36;;;;;;;7.38;3.35;;;;;;;24.66;40.42;98861.16;4980633;28;20038;-66
2021/06/05 11:08:11;;;;;;;7.15;2.90;;;;;;;24.88;39.33;98856.09;4976866;28;20040;-63
2021/06/05 11:10:59;;;;;;;6.95;2.97;;;;;;;24.89;38.98;98848.91;4983008;28;20512;-64
2021/06/05 11:13:35;;;;;;;6.28;2.85;;;;;;;24.89;39.18;98851.56;4983001;28;20026;-66
2021/06/05 11:16:14;;;;;;;5.55;2.40;;;;;;;24.81;37.35;98849.28;4993059;28;20121;-65
2021/06/05 11:18:43;;;;;;;;;;;;;;;24.98;36.81;98854.69;4975391;28;20524;-65
2021/06/05 11:21:26;;;;;;;7.47;2.60;;;;;;;24.89;38.52;98851.56;4982402;28;20094;-65
2021/06/05 11:23:58;;;;;;;5.85;2.80;;;;;;;24.82;39.07;98856.19;4974811;28;20034;-64
2021/06/05 11:26:36;;;;;;;6.97;2.95;;;;;;;24.78;38.57;98823.94;4990544;28;20129;-65